This is the latest recevied weather packets stored in our database for station/object K7CTM. If no packets are shown the sender has not sent any weather packets the latest 10 day(s).
| Time | Temp. | Humidity | Pressure | Rain* | Wind** | Luminosity | Snow |
|---|---|---|---|---|---|---|---|
| 1777993617 | 3.89° C | 59% | 1027.4 hPa | 0 mm | - | 275 W/m² | - |
| 1777993314 | 3.89° C | 60% | 1027.2 hPa | 0 mm | - | 392 W/m² | - |
| 1777993009 | 3.33° C | 61% | 1027.3 hPa | 0 mm | - | 356 W/m² | - |
| 1777992709 | 3.89° C | 61% | 1027.3 hPa | 0 mm | - | 251 W/m² | - |
| 1777992406 | 3.89° C | 61% | 1027.2 hPa | 0 mm | - | 237 W/m² | - |
| 1777992103 | 3.89° C | 62% | 1027.3 hPa | 0 mm | - | 289 W/m² | - |
| 1777991801 | 2.78° C | 65% | 1027.5 hPa | 0 mm | - | 343 W/m² | - |
| 1777991498 | 2.22° C | 66% | 1027.4 hPa | 0 mm | - | 289 W/m² | - |
| 1777991195 | 2.22° C | 66% | 1027.5 hPa | 0 mm | - | 261 W/m² | - |
| 1777990892 | 1.67° C | 68% | 1027.4 hPa | 0 mm | - | 261 W/m² | - |
| 1777990590 | 1.11° C | 71% | 1027.3 hPa | 0 mm | - | 283 W/m² | - |
| 1777989983 | 0.56° C | 71% | 1027.5 hPa | 0 mm | - | 126 W/m² | - |
| 1777989680 | 0.56° C | 72% | 1027.5 hPa | 0 mm | - | 107 W/m² | - |
| 1777989375 | 0.56° C | 73% | 1027.7 hPa | 0 mm | - | 103 W/m² | - |
| 1777989073 | 0.56° C | 73% | 1027.4 hPa | 0 mm | - | 102 W/m² | - |
| 1777988768 | 1.11° C | 71% | 1027.7 hPa | 0 mm | - | 119 W/m² | - |
| 1777988466 | 0.56° C | 71% | 1027.7 hPa | 0 mm | - | 171 W/m² | - |
| 1777988163 | 0° C | 72% | 1027.4 hPa | 0 mm | - | 167 W/m² | - |
| 1777987858 | 0° C | 75% | 1027.4 hPa | 0 mm | - | 94 W/m² | - |
| 1777987555 | 0° C | 75% | 1027.1 hPa | 0 mm | - | 83 W/m² | - |
| 1777987253 | 0° C | 74% | 1027.3 hPa | 0 mm | - | 80 W/m² | - |
| 1777986949 | 0° C | 74% | 1027 hPa | 0 mm | - | 70 W/m² | - |
| 1777986647 | 0° C | 73% | 1027.1 hPa | 0 mm | - | 64 W/m² | - |
| 1777986345 | -0.56° C | 73% | 1027 hPa | 0 mm | - | 59 W/m² | - |
| 1777986043 | -0.56° C | 73% | 1027 hPa | 0 mm | - | 51 W/m² | - |
* Rain latest hour (hover to see other rain measurements)
** Current wind speed in m/s (hover to see current wind gust speed)